createdAt,value
2019-03-22T00:01:25.849Z,9.50
2019-03-22T00:03:53.048Z,9.50
2019-03-22T00:06:20.118Z,9.50
2019-03-22T00:08:47.371Z,9.50
2019-03-22T00:11:14.357Z,9.50
2019-03-22T00:13:41.526Z,9.50
2019-03-22T00:16:08.558Z,9.50
2019-03-22T00:18:35.764Z,9.40
2019-03-22T00:21:03.673Z,9.40
2019-03-22T00:23:30.755Z,9.40
2019-03-22T00:26:04.009Z,9.40
2019-03-22T00:28:31.265Z,9.40
2019-03-22T00:30:58.250Z,9.40
2019-03-22T00:33:25.310Z,9.30
2019-03-22T00:35:54.662Z,9.30
2019-03-22T00:38:21.711Z,9.30
2019-03-22T00:40:48.716Z,9.30
2019-03-22T00:43:15.797Z,9.20
2019-03-22T00:45:42.806Z,9.20
2019-03-22T00:48:09.926Z,9.20
2019-03-22T00:50:37.844Z,9.30
2019-03-22T00:53:04.973Z,9.20
2019-03-22T00:55:32.085Z,9.30
2019-03-22T00:57:59.339Z,9.30
2019-03-22T01:00:26.627Z,9.40
2019-03-22T01:02:53.778Z,9.40
2019-03-22T01:05:20.965Z,9.40
2019-03-22T01:07:48.142Z,9.40
2019-03-22T01:10:15.484Z,9.20
2019-03-22T01:12:42.735Z,9.00
2019-03-22T01:15:12.289Z,8.90
2019-03-22T01:17:39.343Z,9.00
2019-03-22T01:20:07.705Z,9.00
2019-03-22T01:22:35.712Z,9.00
2019-03-22T01:25:07.425Z,9.00
2019-03-22T01:27:40.462Z,9.00
2019-03-22T01:30:08.229Z,9.00
2019-03-22T01:32:35.233Z,9.00
2019-03-22T01:35:03.000Z,9.10
2019-03-22T01:37:30.087Z,9.10
2019-03-22T01:39:57.093Z,9.10
2019-03-22T01:42:25.219Z,9.00
2019-03-22T01:44:52.262Z,9.00
2019-03-22T01:47:19.332Z,9.10
2019-03-22T01:49:46.355Z,9.00
2019-03-22T01:52:13.439Z,9.00
2019-03-22T01:54:40.518Z,9.00
2019-03-22T01:57:10.188Z,9.00
2019-03-22T01:59:37.223Z,9.00
2019-03-22T02:02:04.298Z,8.90
2019-03-22T02:04:31.320Z,9.00
2019-03-22T02:07:03.817Z,8.90
2019-03-22T02:09:30.842Z,8.90
2019-03-22T02:11:57.895Z,8.90
2019-03-22T02:14:24.942Z,8.90
2019-03-22T02:16:52.234Z,8.90
2019-03-22T02:19:19.247Z,8.90
2019-03-22T02:21:46.324Z,8.90
2019-03-22T02:24:13.375Z,8.90
2019-03-22T02:26:40.493Z,8.90
2019-03-22T02:29:07.520Z,8.80
2019-03-22T02:31:34.588Z,8.80
2019-03-22T02:34:01.665Z,8.80
2019-03-22T02:36:28.811Z,8.80
2019-03-22T02:38:56.108Z,8.70
2019-03-22T02:41:23.298Z,8.70
2019-03-22T02:43:50.454Z,8.70
2019-03-22T02:46:17.553Z,8.90
2019-03-22T02:48:45.670Z,8.90
2019-03-22T02:51:12.793Z,8.90
2019-03-22T02:53:39.900Z,8.90
2019-03-22T02:56:08.271Z,8.90
2019-03-22T02:58:36.340Z,8.80
2019-03-22T03:01:03.366Z,8.80
2019-03-22T03:03:30.415Z,8.80
2019-03-22T03:05:59.997Z,8.80
2019-03-22T03:08:27.008Z,8.80
2019-03-22T03:10:54.167Z,8.90
2019-03-22T03:13:21.178Z,8.90
2019-03-22T03:15:51.063Z,8.90
2019-03-22T03:18:18.065Z,8.90
2019-03-22T03:20:45.199Z,8.90
2019-03-22T03:23:12.233Z,8.90
2019-03-22T03:25:39.345Z,8.90
2019-03-22T03:28:06.458Z,8.90
2019-03-22T03:30:33.737Z,8.90
2019-03-22T03:33:00.897Z,8.90
2019-03-22T03:35:28.033Z,8.90
2019-03-22T03:37:55.236Z,8.90
2019-03-22T03:40:22.405Z,8.90
2019-03-22T03:42:50.627Z,8.80
2019-03-22T03:45:32.456Z,8.90
2019-03-22T03:48:02.055Z,8.80
2019-03-22T03:50:29.228Z,8.80
2019-03-22T03:52:56.341Z,8.80
2019-03-22T03:55:23.462Z,8.80
2019-03-22T03:57:50.523Z,8.80
2019-03-22T04:00:17.859Z,8.80
2019-03-22T04:02:44.926Z,8.80
2019-03-22T04:05:14.506Z,8.80
2019-03-22T04:07:40.844Z,8.80
2019-03-22T04:10:08.066Z,8.80
2019-03-22T04:12:35.251Z,8.80
2019-03-22T04:15:03.679Z,8.80
2019-03-22T04:17:33.196Z,8.80
2019-03-22T04:20:00.448Z,8.80
2019-03-22T04:22:27.684Z,8.80
2019-03-22T04:24:54.694Z,8.80
2019-03-22T04:27:21.850Z,8.80
2019-03-22T04:29:48.883Z,8.80
2019-03-22T04:32:15.992Z,8.80
2019-03-22T04:34:43.011Z,8.80
2019-03-22T04:37:10.046Z,8.90
2019-03-22T04:39:37.077Z,8.80
2019-03-22T04:42:05.455Z,8.90
2019-03-22T04:44:32.433Z,8.90
2019-03-22T04:47:00.261Z,8.90
2019-03-22T04:49:28.509Z,8.80
2019-03-22T04:51:55.609Z,8.80
2019-03-22T04:54:24.552Z,8.80
2019-03-22T04:56:53.229Z,8.80
2019-03-22T04:59:20.861Z,8.80
2019-03-22T05:01:49.905Z,8.80
2019-03-22T05:04:18.122Z,8.80
2019-03-22T05:06:48.056Z,8.80
2019-03-22T05:09:16.067Z,8.80
2019-03-22T05:11:45.030Z,8.80
2019-03-22T05:14:14.791Z,8.70
2019-03-22T05:16:44.821Z,8.70
2019-03-22T05:19:13.547Z,8.70
2019-03-22T05:21:41.516Z,8.80
2019-03-22T05:24:09.889Z,8.70
2019-03-22T05:26:39.377Z,8.70
2019-03-22T05:29:09.125Z,8.60
2019-03-22T05:31:39.909Z,8.70
2019-03-22T05:34:08.063Z,8.60
2019-03-22T05:36:36.144Z,8.60
2019-03-22T05:39:06.389Z,8.60
2019-03-22T05:41:33.579Z,8.70
2019-03-22T05:44:00.834Z,8.60
2019-03-22T05:46:32.138Z,8.60
2019-03-22T05:48:59.301Z,8.60
2019-03-22T05:51:28.203Z,8.50
2019-03-22T05:53:57.800Z,8.50
2019-03-22T05:56:24.984Z,8.60
2019-03-22T05:58:52.210Z,8.70
2019-03-22T06:01:19.381Z,8.80
2019-03-22T06:03:46.504Z,8.80
2019-03-22T06:06:13.670Z,8.70
2019-03-22T06:08:40.901Z,8.70
2019-03-22T06:11:07.945Z,8.70
2019-03-22T06:13:35.002Z,8.80
2019-03-22T06:16:02.049Z,8.70
2019-03-22T06:18:29.148Z,8.70
2019-03-22T06:20:56.111Z,8.70
2019-03-22T06:23:23.199Z,8.80
2019-03-22T06:25:50.299Z,8.70
2019-03-22T06:28:18.365Z,8.70
2019-03-22T06:30:45.389Z,8.80
2019-03-22T06:33:14.895Z,8.80
2019-03-22T06:35:41.897Z,8.90
2019-03-22T06:38:08.923Z,8.90
2019-03-22T06:40:35.950Z,8.90
2019-03-22T06:43:03.089Z,8.90
2019-03-22T06:45:30.112Z,8.90
2019-03-22T06:47:57.345Z,8.90
2019-03-22T06:50:24.352Z,8.80
2019-03-22T06:52:52.174Z,8.80
2019-03-22T06:55:19.237Z,8.90
2019-03-22T06:57:46.396Z,8.90
2019-03-22T07:00:13.406Z,8.90
2019-03-22T07:02:40.662Z,8.90
2019-03-22T07:05:07.717Z,8.90
2019-03-22T07:07:34.806Z,8.90
2019-03-22T07:10:02.213Z,8.80
2019-03-22T07:12:29.295Z,8.80
2019-03-22T07:14:56.318Z,8.80
2019-03-22T07:17:23.458Z,8.90
2019-03-22T07:19:50.479Z,8.80
2019-03-22T07:22:18.662Z,8.80
2019-03-22T07:24:45.658Z,8.80
2019-03-22T07:27:12.781Z,8.80
2019-03-22T07:29:39.805Z,8.70
2019-03-22T07:32:06.925Z,8.70
2019-03-22T07:34:33.987Z,8.80
2019-03-22T07:37:00.985Z,8.80
2019-03-22T07:39:28.124Z,8.80
2019-03-22T07:41:55.281Z,8.80
2019-03-22T07:44:24.715Z,8.80
2019-03-22T07:46:51.785Z,8.90
2019-03-22T07:49:18.898Z,8.80
2019-03-22T07:51:47.813Z,8.90
2019-03-22T07:54:15.037Z,8.90
2019-03-22T07:56:42.042Z,8.90
2019-03-22T07:59:09.931Z,8.90
2019-03-22T08:01:37.144Z,9.00
2019-03-22T08:04:04.356Z,9.10
2019-03-22T08:06:31.345Z,9.10
2019-03-22T08:08:58.452Z,9.20
2019-03-22T08:11:25.445Z,9.20
2019-03-22T08:13:52.503Z,9.30
2019-03-22T08:16:19.479Z,9.30
2019-03-22T08:18:46.621Z,9.30
2019-03-22T08:21:14.693Z,9.40
2019-03-22T08:23:41.906Z,9.40
2019-03-22T08:26:08.864Z,9.50
2019-03-22T08:28:35.933Z,9.50
2019-03-22T08:31:05.442Z,9.50
2019-03-22T08:33:32.055Z,9.60
2019-03-22T08:35:59.023Z,9.60
2019-03-22T08:38:26.157Z,9.70
2019-03-22T08:40:53.125Z,9.70
2019-03-22T08:43:20.240Z,9.70
2019-03-22T08:45:47.223Z,9.70
2019-03-22T08:48:14.272Z,9.70
2019-03-22T08:50:41.449Z,9.70
2019-03-22T08:53:08.579Z,9.80
2019-03-22T08:55:38.060Z,9.80
2019-03-22T08:58:05.135Z,9.80
2019-03-22T09:00:39.283Z,9.80
2019-03-22T09:03:01.137Z,9.80
2019-03-22T09:05:28.301Z,9.80
2019-03-22T09:07:57.613Z,9.90
2019-03-22T09:10:24.701Z,9.90
2019-03-22T09:12:51.695Z,9.90
2019-03-22T09:15:18.890Z,9.90
2019-03-22T09:17:45.844Z,10.00
2019-03-22T09:20:13.041Z,10.00
2019-03-22T09:22:40.034Z,10.10
2019-03-22T09:25:07.229Z,10.10
2019-03-22T09:27:36.466Z,10.20
2019-03-22T09:30:11.733Z,10.30
2019-03-22T09:32:38.672Z,9.40
2019-03-22T09:35:05.753Z,10.40
2019-03-22T09:37:32.840Z,10.40
2019-03-22T09:40:00.065Z,10.50
2019-03-22T09:42:27.161Z,10.50
2019-03-22T09:44:54.289Z,10.50
2019-03-22T09:47:21.261Z,10.60
2019-03-22T09:49:51.116Z,10.70
2019-03-22T09:52:17.309Z,10.70
2019-03-22T09:54:44.531Z,10.80
2019-03-22T09:57:12.544Z,10.80
2019-03-22T09:59:39.733Z,10.80
2019-03-22T10:02:06.899Z,10.90
2019-03-22T10:04:34.123Z,10.90
2019-03-22T10:07:01.276Z,10.90
2019-03-22T10:09:28.445Z,10.90
2019-03-22T10:11:55.564Z,10.90
2019-03-22T10:14:22.716Z,11.00
2019-03-22T10:16:49.818Z,11.10
2019-03-22T10:19:16.997Z,11.00
2019-03-22T10:21:44.212Z,11.10
2019-03-22T10:24:11.367Z,11.10
2019-03-22T10:26:38.506Z,11.10
2019-03-22T10:29:07.096Z,11.10
2019-03-22T10:31:37.431Z,11.20
2019-03-22T10:34:03.716Z,11.20
2019-03-22T10:36:31.621Z,11.20
2019-03-22T10:38:58.785Z,11.20
2019-03-22T10:41:25.947Z,11.20
2019-03-22T10:43:54.261Z,11.10
2019-03-22T10:46:21.398Z,11.10
2019-03-22T10:48:48.464Z,11.10
2019-03-22T10:51:15.575Z,11.20
2019-03-22T10:53:42.706Z,11.10
2019-03-22T10:56:09.773Z,11.20
2019-03-22T10:58:36.822Z,11.20
2019-03-22T11:01:04.321Z,11.20
2019-03-22T11:03:31.575Z,11.20
2019-03-22T11:05:58.812Z,11.30
2019-03-22T11:08:26.045Z,11.30
2019-03-22T11:10:55.525Z,11.30
2019-03-22T11:13:24.361Z,11.40
2019-03-22T11:15:51.481Z,11.50
2019-03-22T11:18:21.050Z,11.90
2019-03-22T11:20:48.240Z,12.10
2019-03-22T11:23:15.472Z,12.40
2019-03-22T11:25:42.651Z,12.30
2019-03-22T11:28:11.949Z,12.20
2019-03-22T11:30:38.898Z,12.20
2019-03-22T11:33:06.057Z,12.20
2019-03-22T11:35:33.119Z,12.20
2019-03-22T11:38:00.246Z,12.30
2019-03-22T11:40:27.384Z,12.00
2019-03-22T11:42:54.469Z,12.00
2019-03-22T11:45:24.494Z,12.00
2019-03-22T11:47:51.675Z,12.10
2019-03-22T11:50:18.809Z,12.30
2019-03-22T11:52:47.073Z,12.40
2019-03-22T11:55:14.876Z,12.60
2019-03-22T11:57:42.016Z,12.70
2019-03-22T12:00:18.832Z,12.80
2019-03-22T12:02:45.930Z,13.10
2019-03-22T12:05:14.079Z,13.00
2019-03-22T12:07:41.264Z,13.00
2019-03-22T12:10:11.592Z,13.10
2019-03-22T12:12:38.741Z,13.00
2019-03-22T12:15:08.769Z,12.70
2019-03-22T12:17:35.809Z,12.60
2019-03-22T12:20:08.545Z,12.50
2019-03-22T12:22:39.138Z,12.50
2019-03-22T12:25:07.691Z,12.50
2019-03-22T12:27:36.832Z,12.40
2019-03-22T12:30:12.522Z,12.20
2019-03-22T12:32:39.546Z,12.30
2019-03-22T12:35:07.199Z,12.40
2019-03-22T12:37:34.161Z,12.40
2019-03-22T12:40:01.289Z,12.30
2019-03-22T12:42:29.401Z,12.30
2019-03-22T12:44:56.549Z,12.20
2019-03-22T12:47:23.593Z,12.20
2019-03-22T12:49:50.637Z,12.30
2019-03-22T12:52:17.654Z,12.20
2019-03-22T12:54:44.759Z,12.30
2019-03-22T12:57:11.785Z,12.30
2019-03-22T12:59:38.876Z,12.40
2019-03-22T13:02:05.839Z,12.70
2019-03-22T13:04:32.893Z,13.00
2019-03-22T13:06:59.921Z,13.00
2019-03-22T13:09:26.981Z,13.20
2019-03-22T13:11:54.013Z,13.10
2019-03-22T13:14:21.218Z,13.20
2019-03-22T13:16:48.233Z,13.40
2019-03-22T13:19:15.302Z,13.70
2019-03-22T13:21:42.360Z,13.70
2019-03-22T13:24:09.450Z,13.80
2019-03-22T13:26:36.465Z,13.80
2019-03-22T13:29:03.538Z,13.70
2019-03-22T13:31:30.562Z,13.70
2019-03-22T13:33:57.741Z,13.60
2019-03-22T13:36:24.750Z,13.50
2019-03-22T13:38:51.841Z,13.20
2019-03-22T13:41:18.845Z,13.00
2019-03-22T13:43:45.953Z,12.80
2019-03-22T13:46:12.980Z,12.70
2019-03-22T13:48:40.117Z,12.60
2019-03-22T13:51:07.237Z,12.60
2019-03-22T13:53:34.311Z,12.50
2019-03-22T13:56:01.341Z,12.50
2019-03-22T13:58:28.412Z,12.50
2019-03-22T14:00:55.449Z,12.50
2019-03-22T14:03:23.572Z,12.60
2019-03-22T14:05:50.577Z,12.40
2019-03-22T14:08:17.697Z,12.30
2019-03-22T14:10:44.757Z,12.20
2019-03-22T14:13:14.268Z,12.30
2019-03-22T14:15:42.464Z,12.30
2019-03-22T14:18:09.649Z,12.40
2019-03-22T14:20:36.817Z,12.40
2019-03-22T14:23:04.129Z,12.30
2019-03-22T14:25:31.189Z,12.30
2019-03-22T14:27:59.146Z,12.40
2019-03-22T14:30:26.278Z,12.30
2019-03-22T14:32:54.470Z,12.20
2019-03-22T14:35:21.604Z,11.70
2019-03-22T14:37:49.994Z,12.40
2019-03-22T14:40:17.155Z,12.40
2019-03-22T14:42:45.258Z,12.40
2019-03-22T14:45:13.477Z,12.40
2019-03-22T14:47:40.591Z,12.40
2019-03-22T14:50:07.693Z,12.40
2019-03-22T14:52:35.181Z,12.10
2019-03-22T14:55:03.826Z,12.00
2019-03-22T14:57:31.364Z,11.90
2019-03-22T14:59:59.314Z,11.80
2019-03-22T15:02:26.808Z,11.80
2019-03-22T15:04:55.809Z,11.90
2019-03-22T15:07:22.801Z,11.90
2019-03-22T15:09:49.928Z,12.00
2019-03-22T15:12:18.417Z,12.00
2019-03-22T15:14:47.733Z,12.00
2019-03-22T15:17:28.717Z,12.00
2019-03-22T15:20:03.615Z,12.10
2019-03-22T15:25:41.979Z,12.20
2019-03-22T15:28:22.684Z,12.20
2019-03-22T15:31:08.470Z,12.20
2019-03-22T15:33:54.637Z,12.20
2019-03-22T15:36:30.646Z,12.20
2019-03-22T15:39:14.302Z,12.20
2019-03-22T15:41:42.207Z,12.10
2019-03-22T15:44:09.279Z,12.00
2019-03-22T15:46:36.575Z,12.00
2019-03-22T15:49:03.563Z,12.00
2019-03-22T15:51:30.926Z,12.00
2019-03-22T15:53:59.781Z,12.00
2019-03-22T15:56:27.339Z,11.80
2019-03-22T15:58:54.692Z,11.60
2019-03-22T16:01:22.334Z,11.60
2019-03-22T16:03:49.450Z,11.60
2019-03-22T16:06:19.457Z,11.70
2019-03-22T16:08:47.012Z,11.80
2019-03-22T16:11:14.213Z,11.90
2019-03-22T16:13:41.209Z,11.80
2019-03-22T16:16:08.313Z,11.80
2019-03-22T16:18:36.300Z,11.70
2019-03-22T16:21:03.433Z,11.50
2019-03-22T16:23:31.758Z,11.40
2019-03-22T16:25:59.057Z,11.30
2019-03-22T16:28:27.197Z,11.30
2019-03-22T16:30:54.593Z,11.10
2019-03-22T16:33:21.738Z,11.00
2019-03-22T16:35:49.028Z,11.00
2019-03-22T16:38:16.063Z,11.00
2019-03-22T16:40:43.254Z,11.00
2019-03-22T16:43:10.506Z,11.00
2019-03-22T16:45:39.375Z,11.00
2019-03-22T16:48:06.705Z,11.00
2019-03-22T16:50:34.741Z,11.00
2019-03-22T16:53:05.132Z,11.00
2019-03-22T16:55:32.697Z,11.00
2019-03-22T16:58:00.268Z,10.90
2019-03-22T17:00:31.149Z,10.80
2019-03-22T17:02:59.502Z,10.70
2019-03-22T17:05:26.745Z,10.60
2019-03-22T17:07:53.833Z,10.60
2019-03-22T17:10:23.489Z,10.60
2019-03-22T17:12:50.691Z,10.50
2019-03-22T17:15:19.156Z,10.40
2019-03-22T17:17:46.172Z,10.40
2019-03-22T17:20:14.791Z,10.40
2019-03-22T17:22:44.253Z,10.30
2019-03-22T17:25:11.458Z,10.30
2019-03-22T17:27:38.543Z,10.20
2019-03-22T17:30:06.641Z,10.10
2019-03-22T17:32:34.720Z,10.00
2019-03-22T17:35:02.027Z,9.90
2019-03-22T17:37:29.102Z,9.90
2019-03-22T17:39:56.150Z,9.80
2019-03-22T17:42:23.203Z,9.70
2019-03-22T17:44:50.251Z,9.60
2019-03-22T17:47:17.294Z,9.50
2019-03-22T17:49:49.914Z,9.40
2019-03-22T17:52:16.960Z,9.30
2019-03-22T17:54:44.238Z,9.20
2019-03-22T17:57:18.373Z,9.00
2019-03-22T17:59:40.316Z,8.90
2019-03-22T18:02:07.677Z,8.80
2019-03-22T18:04:34.772Z,8.70
2019-03-22T18:07:02.075Z,8.70
2019-03-22T18:09:29.153Z,8.60
2019-03-22T18:11:56.307Z,8.50
2019-03-22T18:14:23.468Z,8.40
2019-03-22T18:16:50.652Z,8.40
2019-03-22T18:19:18.995Z,8.30
2019-03-22T18:21:46.209Z,8.20
2019-03-22T18:24:13.242Z,8.10
2019-03-22T18:26:41.520Z,8.00
2019-03-22T18:29:09.157Z,7.90
2019-03-22T18:31:39.378Z,7.90
2019-03-22T18:34:06.496Z,7.90
2019-03-22T18:36:34.120Z,7.80
2019-03-22T18:39:03.839Z,7.80
2019-03-22T18:41:31.190Z,7.60
2019-03-22T18:43:58.252Z,7.50
2019-03-22T18:46:25.459Z,7.40
2019-03-22T18:48:52.388Z,7.30
2019-03-22T18:51:19.708Z,7.20
2019-03-22T18:53:46.778Z,7.20
2019-03-22T18:56:14.027Z,7.10
2019-03-22T18:58:41.575Z,7.10
2019-03-22T19:01:08.803Z,7.00
2019-03-22T19:03:35.909Z,7.00
2019-03-22T19:06:02.940Z,6.90
2019-03-22T19:08:32.693Z,6.90
2019-03-22T19:11:00.049Z,6.80
2019-03-22T19:13:30.891Z,6.70
2019-03-22T19:15:58.533Z,6.70
2019-03-22T19:18:25.699Z,6.70
2019-03-22T19:20:52.672Z,6.70
2019-03-22T19:23:19.698Z,6.70
2019-03-22T19:25:48.907Z,6.60
2019-03-22T19:28:18.788Z,6.60
2019-03-22T19:30:45.989Z,6.50
2019-03-22T19:33:14.512Z,6.40
2019-03-22T19:35:41.647Z,6.40
2019-03-22T19:38:10.748Z,6.30
2019-03-22T19:40:38.978Z,6.30
2019-03-22T19:43:05.998Z,6.30
2019-03-22T19:45:33.325Z,6.20
2019-03-22T19:48:01.360Z,6.10
2019-03-22T19:50:29.454Z,6.00
2019-03-22T19:52:58.358Z,5.90
2019-03-22T19:55:28.386Z,5.90
2019-03-22T19:57:55.524Z,5.90
2019-03-22T20:00:22.718Z,5.90
2019-03-22T20:02:49.759Z,5.90
2019-03-22T20:05:28.241Z,5.90
2019-03-22T20:07:55.508Z,6.00
2019-03-22T20:10:22.529Z,5.90
2019-03-22T20:12:50.654Z,5.90
2019-03-22T20:15:17.670Z,5.80
2019-03-22T20:17:45.721Z,5.80
2019-03-22T20:20:13.043Z,5.80
2019-03-22T20:22:40.027Z,5.90
2019-03-22T20:25:08.591Z,6.10
2019-03-22T20:27:35.718Z,6.10
2019-03-22T20:30:14.625Z,6.10
2019-03-22T20:32:41.632Z,6.20
2019-03-22T20:35:16.295Z,6.10
2019-03-22T20:37:38.605Z,6.10
2019-03-22T20:40:07.962Z,6.00
2019-03-22T20:42:35.045Z,5.90
2019-03-22T20:45:03.150Z,5.90
2019-03-22T20:47:30.362Z,5.80
2019-03-22T20:49:57.358Z,5.80
2019-03-22T20:52:24.365Z,5.70
2019-03-22T20:54:51.490Z,5.60
2019-03-22T20:57:18.544Z,5.60
2019-03-22T20:59:45.716Z,5.50
2019-03-22T21:02:12.759Z,5.50
2019-03-22T21:04:39.894Z,5.40
2019-03-22T21:07:07.007Z,5.40
2019-03-22T21:09:34.145Z,5.40
2019-03-22T21:12:03.735Z,5.40
2019-03-22T21:14:30.894Z,5.30
2019-03-22T21:16:58.043Z,5.20
2019-03-22T21:19:26.100Z,5.20
2019-03-22T21:21:53.251Z,5.10
2019-03-22T21:24:20.395Z,5.10
2019-03-22T21:26:47.480Z,5.00
2019-03-22T21:29:14.525Z,4.90
2019-03-22T21:31:41.592Z,4.90
2019-03-22T21:34:08.768Z,4.80
2019-03-22T21:36:35.996Z,4.80
2019-03-22T21:39:05.210Z,4.80
2019-03-22T21:41:32.410Z,4.80
2019-03-22T21:43:59.461Z,4.70
2019-03-22T21:46:26.573Z,4.70
2019-03-22T21:48:53.590Z,4.70
2019-03-22T21:51:20.810Z,4.60
2019-03-22T21:53:47.881Z,4.60
2019-03-22T21:56:16.076Z,4.50
2019-03-22T21:58:45.796Z,4.40
2019-03-22T22:01:12.869Z,4.30
2019-03-22T22:03:41.006Z,4.30
2019-03-22T22:06:08.252Z,4.20
2019-03-22T22:08:35.292Z,4.20
2019-03-22T22:11:04.223Z,4.20
2019-03-22T22:13:33.932Z,4.10
2019-03-22T22:16:01.358Z,4.10
2019-03-22T22:18:28.454Z,4.10
2019-03-22T22:20:55.529Z,4.00
2019-03-22T22:23:22.688Z,4.00
2019-03-22T22:25:49.871Z,4.00
2019-03-22T22:28:16.897Z,4.00
2019-03-22T22:30:44.569Z,4.30
2019-03-22T22:33:11.785Z,4.10
2019-03-22T22:35:39.033Z,4.20
2019-03-22T22:38:08.712Z,4.20
2019-03-22T22:40:37.559Z,4.10
2019-03-22T22:43:04.701Z,4.00
2019-03-22T22:45:31.695Z,3.90
2019-03-22T22:47:58.828Z,3.80
2019-03-22T22:50:25.808Z,3.80
2019-03-22T22:52:52.825Z,3.70
2019-03-22T22:55:22.208Z,3.60
2019-03-22T22:57:49.271Z,3.60
2019-03-22T23:00:16.395Z,3.50
2019-03-22T23:02:45.339Z,3.50
2019-03-22T23:05:12.618Z,3.40
2019-03-22T23:07:39.600Z,3.60
2019-03-22T23:10:07.063Z,3.60
2019-03-22T23:12:34.383Z,3.50
2019-03-22T23:15:01.619Z,3.50
2019-03-22T23:17:28.585Z,3.50
2019-03-22T23:19:55.755Z,3.50
2019-03-22T23:22:22.781Z,3.40
2019-03-22T23:24:49.864Z,3.40
2019-03-22T23:27:16.903Z,3.40
2019-03-22T23:29:45.057Z,3.40
2019-03-22T23:32:12.093Z,3.40
2019-03-22T23:34:39.286Z,3.50
2019-03-22T23:37:07.309Z,3.40
2019-03-22T23:39:34.489Z,3.40
2019-03-22T23:42:01.491Z,3.40
2019-03-22T23:44:30.435Z,3.40
2019-03-22T23:46:57.486Z,3.50
2019-03-22T23:49:24.808Z,3.60
2019-03-22T23:51:51.974Z,3.60
2019-03-22T23:54:19.132Z,3.50
2019-03-22T23:56:46.252Z,3.60
2019-03-22T23:59:13.379Z,3.70
